Time;durP1;ratioP1;P1;durP2;ratioP2;P2;SDS_P1;SDS_P2;PMS_P1;PMS_P2;Temp;Humidity;BMP_temperature;BMP_pressure;BME280_temperature;BME280_humidity;BME280_pressure;Samples;Min_cycle;Max_cycle;Signal;HPM_P1;HPM_P2
2023/11/05 00:00:37;;;;;;;;;;;;;;;;;;5111456;28;19923;-77
2023/11/05 00:03:04;;;;;;;;;;;;;;;;;;5097401;28;19931;-81
2023/11/05 00:05:30;;;;;;;;;;;;;;;;;;5103281;28;20391;-79
2023/11/05 00:07:57;;;;;;;;;;;;;;;;;;5107147;28;19947;-78
2023/11/05 00:10:25;;;;;;;;;;;;;;;;;;5105873;28;19930;-80
2023/11/05 00:12:56;;;;;;;;;;;;;;;;;;5096341;28;19924;-78
2023/11/05 00:15:22;;;;;;;;;;;;;;;;;;5100151;28;19928;-77
2023/11/05 00:17:48;;;;;;;;;;;;;;;;;;5104807;28;20380;-78
2023/11/05 00:20:17;;;;;;;;;;;;;;;;;;5100838;28;19924;-79
2023/11/05 00:22:45;;;;;;;;;;;;;;;;;;5103822;28;20423;-77
2023/11/05 00:25:13;;;;;;;;;;;;;;;;;;5101908;28;19924;-77
2023/11/05 00:27:41;;;;;;;;;;;;;;;;;;5111344;28;19924;-78
2023/11/05 00:30:08;;;;;;;;;;;;;;;;;;5104074;28;19924;-77
2023/11/05 00:32:35;;;;;;;;;;;;;;;;;;5082951;28;19924;-79
2023/11/05 00:35:01;;;;;;;;;;;;;;;;;;5088510;28;19924;-76
2023/11/05 00:37:27;;;;;;;;;;;;;;;;;;5100500;28;20270;-77
2023/11/05 00:39:55;;;;;;;;;;;;;;;;;;5095515;28;19950;-78
2023/11/05 00:42:23;;;;;;;;;;;;;;;;;;5103986;28;19947;-76
2023/11/05 00:44:50;;;;;;;;;;;;;;;;;;5108543;28;20018;-79
2023/11/05 00:47:18;;;;;;;;;;;;;;;;;;5098954;28;20402;-78
2023/11/05 00:49:45;;;;;;;;;;;;;;;;;;5104102;28;19997;-79
2023/11/05 00:52:12;;;;;;;;;;;;;;;;;;5105809;28;19924;-79
2023/11/05 00:54:38;;;;;;;;;;;;;;;;;;5112405;28;19923;-77
2023/11/05 00:57:08;;;;;;;;;;;;;;;;;;5111435;28;19934;-78
2023/11/05 00:59:35;;;;;;;;;;;;;;;;;;5114725;28;19963;-80
2023/11/05 01:02:02;;;;;;;;;;;;;;;;;;5115643;28;20384;-80
2023/11/05 01:04:30;;;;;;;;;;;;;;;;;;5110618;28;19924;-77
2023/11/05 01:06:56;;;;;;;;;;;;;;;;;;5079906;28;19924;-77
2023/11/05 01:09:26;;;;;;;;;;;;;;;;;;5111161;28;19928;-78
2023/11/05 01:11:53;;;;;;;;;;;;;;;;;;5107073;28;20007;-78
2023/11/05 01:14:19;;;;;;;;;;;;;;;;;;5109316;28;19959;-79
2023/11/05 01:16:46;;;;;;;;;;;;;;;;;;5117850;28;19935;-79
2023/11/05 01:19:12;;;;;;;;;;;;;;;;;;5092393;28;19967;-78
2023/11/05 01:21:41;;;;;;;;;;;;;;;;;;5108079;28;19923;-77
2023/11/05 01:24:08;;;;;;;;;;;;;;;;;;5089965;28;19924;-77
2023/11/05 01:26:37;;;;;;;;;;;;;;;;;;5104351;28;19962;-77
2023/11/05 01:29:03;;;;;;;;;;;;;;;;;;5110398;28;20398;-77
2023/11/05 01:31:29;;;;;;;;;;;;;;;;;;5104896;28;19960;-76
2023/11/05 01:33:56;;;;;;;;;;;;;;;;;;5099859;28;20403;-78
2023/11/05 01:36:23;;;;;;;;;;;;;;;;;;5114940;28;20285;-77
2023/11/05 01:38:49;;;;;;;;;;;;;;;;;;5111228;28;19928;-77
2023/11/05 01:41:15;;;;;;;;;;;;;;;;;;5105607;28;19978;-78
2023/11/05 01:43:42;;;;;;;;;;;;;;;;;;5110219;28;19928;-78
2023/11/05 01:46:09;;;;;;;;;;;;;;;;;;5114489;28;19924;-77
2023/11/05 01:48:35;;;;;;;;;;;;;;;;;;5095940;28;19928;-77
2023/11/05 01:51:02;;;;;;;;;;;;;;;;;;5108601;28;19928;-79
2023/11/05 01:53:33;;;;;;;;;;;;;;;;;;5108797;28;20451;-79
2023/11/05 01:56:00;;;;;;;;;;;;;;;;;;5102999;28;19935;-79
2023/11/05 01:58:28;;;;;;;;;;;;;;;;;;5102757;28;20315;-77
2023/11/05 02:00:54;;;;;;;;;;;;;;;;;;5103997;28;20030;-79
2023/11/05 02:03:21;;;;;;;;;;;;;;;;;;5102952;28;19971;-78
2023/11/05 02:05:48;;;;;;;;;;;;;;;;;;5102474;28;19924;-77
2023/11/05 02:08:14;;;;;;;;;;;;;;;;;;5106421;28;19947;-78
2023/11/05 02:10:41;;;;;;;;;;;;;;;;;;5105084;28;20026;-77
2023/11/05 02:13:07;;;;;;;;;;;;;;;;;;5108156;28;19949;-78
2023/11/05 02:15:34;;;;;;;;;;;;;;;;;;5108082;28;19924;-78
2023/11/05 02:18:00;;;;;;;;;;;;;;;;;;5099834;28;20349;-78
2023/11/05 02:20:27;;;;;;;;;;;;;;;;;;5105577;28;20283;-77
2023/11/05 02:22:55;;;;;;;;;;;;;;;;;;5102487;28;19927;-76
2023/11/05 02:25:22;;;;;;;;;;;;;;;;;;5109949;28;20380;-77
2023/11/05 02:27:48;;;;;;;;;;;;;;;;;;5097622;28;19993;-78
2023/11/05 02:30:15;;;;;;;;;;;;;;;;;;5111911;28;19924;-76
2023/11/05 02:32:45;;;;;;;;;;;;;;;;;;5123209;28;19924;-79
2023/11/05 02:35:12;;;;;;;;;;;;;;;;;;5087928;28;19956;-78
2023/11/05 02:37:39;;;;;;;;;;;;;;;;;;5110904;28;19931;-79
2023/11/05 02:40:06;;;;;;;;;;;;;;;;;;5103561;28;19923;-80
2023/11/05 02:42:33;;;;;;;;;;;;;;;;;;5038675;28;1804824;-79
2023/11/05 02:45:01;;;;;;;;;;;;;;;;;;5103673;28;19989;-79
2023/11/05 02:47:30;;;;;;;;;;;;;;;;;;5102427;28;20016;-79
2023/11/05 02:49:58;;;;;;;;;;;;;;;;;;5110729;28;19966;-79
2023/11/05 02:52:25;;;;;;;;;;;;;;;;;;5104787;28;19958;-78
2023/11/05 02:54:52;;;;;;;;;;;;;;;;;;5101383;28;19924;-80
2023/11/05 02:57:34;;;;;;;;;;;;;;;;;;5103983;28;20377;-80
2023/11/05 03:00:00;;;;;;;;;;;;;;;;;;5094847;28;19924;-79
2023/11/05 03:02:27;;;;;;;;;;;;;;;;;;5085042;28;19985;-79
2023/11/05 03:04:55;;;;;;;;;;;;;;;;;;5102938;28;19924;-80
2023/11/05 03:07:24;;;;;;;;;;;;;;;;;;5088726;28;19924;-80
2023/11/05 03:09:52;;;;;;;;;;;;;;;;;;5104902;28;19928;-79
2023/11/05 03:12:18;;;;;;;;;;;;;;;;;;5088143;28;19977;-79
2023/11/05 03:14:45;;;;;;;;;;;;;;;;;;5103221;28;19932;-80
2023/11/05 03:17:13;;;;;;;;;;;;;;;;;;5102320;28;20307;-80
2023/11/05 03:19:40;;;;;;;;;;;;;;;;;;5102553;28;19931;-80
2023/11/05 03:22:07;;;;;;;;;;;;;;;;;;5100818;28;19935;-80
2023/11/05 03:24:33;;;;;;;;;;;;;;;;;;5104607;28;19924;-80
2023/11/05 03:27:00;;;;;;;;;;;;;;;;;;5107336;28;20018;-80
2023/11/05 03:29:26;;;;;;;;;;;;;;;;;;5102171;28;19928;-80
2023/11/05 03:31:54;;;;;;;;;;;;;;;;;;5108063;28;20441;-79
2023/11/05 03:34:21;;;;;;;;;;;;;;;;;;5101033;28;19967;-80
2023/11/05 03:36:47;;;;;;;;;;;;;;;;;;5102404;28;19929;-80
2023/11/05 03:39:14;;;;;;;;;;;;;;;;;;5103846;28;19924;-81
2023/11/05 03:41:41;;;;;;;;;;;;;;;;;;5103571;28;19928;-80
2023/11/05 03:44:09;;;;;;;;;;;;;;;;;;5085213;28;19957;-79
2023/11/05 03:46:35;;;;;;;;;;;;;;;;;;5103058;28;19954;-80
2023/11/05 03:49:03;;;;;;;;;;;;;;;;;;5096269;28;19924;-80
2023/11/05 03:51:32;;;;;;;;;;;;;;;;;;5109405;28;20342;-80
2023/11/05 03:53:58;;;;;;;;;;;;;;;;;;5102125;28;19928;-79
2023/11/05 03:56:25;;;;;;;;;;;;;;;;;;5104149;28;19924;-79
2023/11/05 03:58:52;;;;;;;;;;;;;;;;;;5104125;28;20365;-80
2023/11/05 04:01:19;;;;;;;;;;;;;;;;;;5100112;28;20390;-79
2023/11/05 04:03:45;;;;;;;;;;;;;;;;;;5103804;28;20269;-80
2023/11/05 04:06:12;;;;;;;;;;;;;;;;;;5104726;28;20296;-80
2023/11/05 04:08:38;;;;;;;;;;;;;;;;;;5104651;28;19953;-77
2023/11/05 04:11:07;;;;;;;;;;;;;;;;;;5100258;28;19930;-79
2023/11/05 04:13:36;;;;;;;;;;;;;;;;;;5102414;28;19932;-79
2023/11/05 04:16:04;;;;;;;;;;;;;;;;;;5101712;28;19924;-79
2023/11/05 04:18:32;;;;;;;;;;;;;;;;;;5103928;28;19923;-79
2023/11/05 04:20:58;;;;;;;;;;;;;;;;;;5096095;28;19924;-77
2023/11/05 04:23:25;;;;;;;;;;;;;;;;;;5109736;28;19986;-78
2023/11/05 04:25:53;;;;;;;;;;;;;;;;;;5081835;28;19952;-79
2023/11/05 04:28:20;;;;;;;;;;;;;;;;;;5086730;28;19997;-78
2023/11/05 04:30:48;;;;;;;;;;;;;;;;;;5106801;28;19978;-79
2023/11/05 04:33:15;;;;;;;;;;;;;;;;;;5098873;28;19924;-79
2023/11/05 04:35:42;;;;;;;;;;;;;;;;;;5104034;28;19924;-78
2023/11/05 04:38:09;;;;;;;;;;;;;;;;;;5106216;28;19924;-79
2023/11/05 04:40:36;;;;;;;;;;;;;;;;;;5086518;28;19930;-78
2023/11/05 04:43:02;;;;;;;;;;;;;;;;;;5096136;28;19924;-78
2023/11/05 04:45:31;;;;;;;;;;;;;;;;;;5090151;28;19931;-77
2023/11/05 04:47:57;;;;;;;;;;;;;;;;;;5106607;28;19935;-79
2023/11/05 04:50:23;;;;;;;;;;;;;;;;;;5100921;28;20326;-78
2023/11/05 04:52:50;;;;;;;;;;;;;;;;;;5112696;28;19959;-80
2023/11/05 04:55:17;;;;;;;;;;;;;;;;;;5112145;28;20009;-78
2023/11/05 04:57:43;;;;;;;;;;;;;;;;;;5106025;28;19924;-79
2023/11/05 05:00:10;;;;;;;;;;;;;;;;;;5098373;28;20787;-78
2023/11/05 05:02:38;;;;;;;;;;;;;;;;;;5100091;28;20015;-78
2023/11/05 05:05:04;;;;;;;;;;;;;;;;;;5100743;28;19924;-76
2023/11/05 05:07:31;;;;;;;;;;;;;;;;;;5095061;28;19924;-78
2023/11/05 05:09:58;;;;;;;;;;;;;;;;;;5098379;28;19924;-79
2023/11/05 05:12:24;;;;;;;;;;;;;;;;;;5101755;28;19930;-78
2023/11/05 05:14:52;;;;;;;;;;;;;;;;;;5106219;28;19928;-77
2023/11/05 05:17:19;;;;;;;;;;;;;;;;;;5106333;28;19962;-78
2023/11/05 05:19:47;;;;;;;;;;;;;;;;;;5106295;28;19924;-77
2023/11/05 05:22:13;;;;;;;;;;;;;;;;;;5102219;28;20375;-76
2023/11/05 05:24:40;;;;;;;;;;;;;;;;;;5099675;28;19977;-78
2023/11/05 05:27:07;;;;;;;;;;;;;;;;;;5094966;28;19928;-78
2023/11/05 05:29:33;;;;;;;;;;;;;;;;;;5102304;28;19960;-78
2023/11/05 05:32:00;;;;;;;;;;;;;;;;;;5090657;28;19924;-78
2023/11/05 05:34:28;;;;;;;;;;;;;;;;;;5083640;28;20385;-79
2023/11/05 05:36:55;;;;;;;;;;;;;;;;;;5105224;28;20051;-77
2023/11/05 05:39:23;;;;;;;;;;;;;;;;;;5103709;28;19924;-80
2023/11/05 05:41:52;;;;;;;;;;;;;;;;;;5106584;28;19931;-80
2023/11/05 05:44:24;;;;;;;;;;;;;;;;;;5100197;28;19924;-80
2023/11/05 05:46:51;;;;;;;;;;;;;;;;;;5104215;28;19954;-80
2023/11/05 05:49:18;;;;;;;;;;;;;;;;;;5098859;28;19924;-80
2023/11/05 05:51:52;;;;;;;;;;;;;;;;;;5108476;28;19930;-80
2023/11/05 05:54:18;;;;;;;;;;;;;;;;;;5105371;28;19969;-80
2023/11/05 05:56:45;;;;;;;;;;;;;;;;;;5109062;28;19924;-79
2023/11/05 05:59:14;;;;;;;;;;;;;;;;;;5100867;28;19928;-78
2023/11/05 06:01:41;;;;;;;;;;;;;;;;;;5103057;28;19924;-80
2023/11/05 06:04:11;;;;;;;;;;;;;;;;;;5096304;28;19924;-80
2023/11/05 06:06:38;;;;;;;;;;;;;;;;;;5099355;28;19947;-81
2023/11/05 06:09:06;;;;;;;;;;;;;;;;;;5109350;28;19980;-82
2023/11/05 06:11:34;;;;;;;;;;;;;;;;;;5106873;28;19966;-81
2023/11/05 06:14:01;;;;;;;;;;;;;;;;;;5101305;28;19924;-81
2023/11/05 06:16:28;;;;;;;;;;;;;;;;;;5110418;28;19932;-81
2023/11/05 06:18:54;;;;;;;;;;;;;;;;;;5105246;28;19928;-82
2023/11/05 06:21:21;;;;;;;;;;;;;;;;;;5103570;28;20403;-81
2023/11/05 06:23:50;;;;;;;;;;;;;;;;;;5102241;27;19928;-82
2023/11/05 06:26:17;;;;;;;;;;;;;;;;;;5101719;28;20384;-82
2023/11/05 06:28:43;;;;;;;;;;;;;;;;;;5105863;28;19924;-81
2023/11/05 06:31:10;;;;;;;;;;;;;;;;;;5102533;28;20376;-81
2023/11/05 06:33:36;;;;;;;;;;;;;;;;;;5106632;28;19957;-81
2023/11/05 06:36:03;;;;;;;;;;;;;;;;;;5101709;28;19924;-83
2023/11/05 06:38:30;;;;;;;;;;;;;;;;;;5104115;28;20411;-81
2023/11/05 06:40:58;;;;;;;;;;;;;;;;;;5107141;28;19924;-82
2023/11/05 06:43:28;;;;;;;;;;;;;;;;;;5101894;28;20303;-81
2023/11/05 06:45:58;;;;;;;;;;;;;;;;;;5102685;28;20345;-82
2023/11/05 06:48:26;;;;;;;;;;;;;;;;;;5101943;28;19992;-81
2023/11/05 06:50:52;;;;;;;;;;;;;;;;;;5103846;28;20388;-81
2023/11/05 06:53:20;;;;;;;;;;;;;;;;;;5109555;28;20016;-80
2023/11/05 06:55:48;;;;;;;;;;;;;;;;;;5106701;28;20285;-81
2023/11/05 06:58:17;;;;;;;;;;;;;;;;;;5103131;28;19928;-81
2023/11/05 07:00:45;;;;;;;;;;;;;;;;;;5086978;28;20022;-82
2023/11/05 07:03:12;;;;;;;;;;;;;;;;;;5103752;28;19969;-84
2023/11/05 07:05:39;;;;;;;;;;;;;;;;;;5083572;28;19928;-82
2023/11/05 07:08:05;;;;;;;;;;;;;;;;;;5105314;28;20376;-81
2023/11/05 07:10:36;;;;;;;;;;;;;;;;;;5105930;28;19924;-81
2023/11/05 07:13:02;;;;;;;;;;;;;;;;;;5102179;28;19988;-81
2023/11/05 07:15:30;;;;;;;;;;;;;;;;;;5098335;28;20027;-81
2023/11/05 07:17:57;;;;;;;;;;;;;;;;;;5107337;28;19923;-80
2023/11/05 07:20:27;;;;;;;;;;;;;;;;;;5102138;28;19973;-81
2023/11/05 07:22:55;;;;;;;;;;;;;;;;;;5104648;28;19928;-82
2023/11/05 07:25:22;;;;;;;;;;;;;;;;;;5104651;28;19981;-83
2023/11/05 07:27:49;;;;;;;;;;;;;;;;;;5105912;28;20368;-83
2023/11/05 07:30:15;;;;;;;;;;;;;;;;;;5099423;28;19946;-82
2023/11/05 07:32:42;;;;;;;;;;;;;;;;;;5106015;28;19953;-81
2023/11/05 07:35:09;;;;;;;;;;;;;;;;;;5104098;28;19977;-82
2023/11/05 07:37:35;;;;;;;;;;;;;;;;;;5106109;28;20077;-81
2023/11/05 07:40:02;;;;;;;;;;;;;;;;;;5100413;28;19934;-81
2023/11/05 07:42:30;;;;;;;;;;;;;;;;;;5103688;28;19928;-81
2023/11/05 07:44:57;;;;;;;;;;;;;;;;;;5107917;28;20744;-82
2023/11/05 07:47:23;;;;;;;;;;;;;;;;;;5102790;28;20019;-80
2023/11/05 07:49:51;;;;;;;;;;;;;;;;;;5108265;28;19924;-80
2023/11/05 07:52:20;;;;;;;;;;;;;;;;;;5105549;28;20387;-82
2023/11/05 07:54:46;;;;;;;;;;;;;;;;;;5103010;28;19932;-81
2023/11/05 07:57:12;;;;;;;;;;;;;;;;;;5103749;28;19981;-81
2023/11/05 07:59:39;;;;;;;;;;;;;;;;;;5104881;28;20019;-81
2023/11/05 08:02:05;;;;;;;;;;;;;;;;;;5106494;28;19973;-81
2023/11/05 08:04:32;;;;;;;;;;;;;;;;;;5108291;28;19931;-80
2023/11/05 08:06:59;;;;;;;;;;;;;;;;;;5102686;28;20324;-80
2023/11/05 08:09:26;;;;;;;;;;;;;;;;;;5096049;28;19928;-80
2023/11/05 08:11:53;;;;;;;;;;;;;;;;;;5098710;28;19924;-80
2023/11/05 08:14:19;;;;;;;;;;;;;;;;;;5108163;28;19959;-80
2023/11/05 08:16:46;;;;;;;;;;;;;;;;;;5105434;28;19995;-80
2023/11/05 08:19:12;;;;;;;;;;;;;;;;;;5101466;28;19928;-81
2023/11/05 08:21:42;;;;;;;;;;;;;;;;;;5092714;28;19924;-81
2023/11/05 08:24:11;;;;;;;;;;;;;;;;;;5103236;28;19928;-82
2023/11/05 08:26:38;;;;;;;;;;;;;;;;;;5102530;28;19977;-80
2023/11/05 08:29:06;;;;;;;;;;;;;;;;;;5103901;28;20434;-81
2023/11/05 08:31:32;;;;;;;;;;;;;;;;;;5103570;28;20269;-82
2023/11/05 08:34:00;;;;;;;;;;;;;;;;;;5100824;28;20341;-81
2023/11/05 08:36:32;;;;;;;;;;;;;;;;;;5105128;28;20310;-81
2023/11/05 08:38:59;;;;;;;;;;;;;;;;;;5104444;28;20015;-81
2023/11/05 08:41:27;;;;;;;;;;;;;;;;;;5092948;28;19943;-81
2023/11/05 08:43:54;;;;;;;;;;;;;;;;;;5099588;28;20023;-80
2023/11/05 08:46:23;;;;;;;;;;;;;;;;;;5102535;28;19924;-81
2023/11/05 08:48:50;;;;;;;;;;;;;;;;;;5109127;28;19967;-81
2023/11/05 08:51:17;;;;;;;;;;;;;;;;;;5099142;28;20340;-81
2023/11/05 08:53:44;;;;;;;;;;;;;;;;;;5102613;28;20023;-81
2023/11/05 08:56:10;;;;;;;;;;;;;;;;;;5093473;28;19924;-81
2023/11/05 08:58:37;;;;;;;;;;;;;;;;;;5102713;28;19935;-81
2023/11/05 09:01:06;;;;;;;;;;;;;;;;;;5104488;28;20444;-81
2023/11/05 09:03:34;;;;;;;;;;;;;;;;;;5102949;28;20271;-81
2023/11/05 09:06:03;;;;;;;;;;;;;;;;;;5101665;28;20379;-81
2023/11/05 09:08:29;;;;;;;;;;;;;;;;;;5100764;28;20583;-81
2023/11/05 09:10:58;;;;;;;;;;;;;;;;;;5107134;28;19928;-81
2023/11/05 09:13:24;;;;;;;;;;;;;;;;;;5106342;28;20292;-80
2023/11/05 09:15:54;;;;;;;;;;;;;;;;;;5089991;28;19934;-80
2023/11/05 09:18:21;;;;;;;;;;;;;;;;;;5110150;28;19925;-79
2023/11/05 09:20:47;;;;;;;;;;;;;;;;;;5110622;28;19991;-82
2023/11/05 09:23:16;;;;;;;;;;;;;;;;;;5110143;28;19981;-82
2023/11/05 09:25:44;;;;;;;;;;;;;;;;;;5110252;28;20376;-82
2023/11/05 09:28:13;;;;;;;;;;;;;;;;;;5106174;28;19924;-85
2023/11/05 09:30:42;;;;;;;;;;;;;;;;;;5103786;28;20016;-84
2023/11/05 09:33:08;;;;;;;;;;;;;;;;;;5106618;28;19959;-82
2023/11/05 09:35:36;;;;;;;;;;;;;;;;;;5104323;28;19923;-82
2023/11/05 09:38:03;;;;;;;;;;;;;;;;;;5106083;28;19934;-82
2023/11/05 09:40:31;;;;;;;;;;;;;;;;;;5103238;28;19931;-82
2023/11/05 09:43:00;;;;;;;;;;;;;;;;;;5106226;28;20391;-84
2023/11/05 09:45:27;;;;;;;;;;;;;;;;;;5106385;28;19935;-81
2023/11/05 09:47:54;;;;;;;;;;;;;;;;;;5105261;28;19931;-83
2023/11/05 09:50:21;;;;;;;;;;;;;;;;;;5108339;28;20073;-80
2023/11/05 09:52:49;;;;;;;;;;;;;;;;;;5101243;28;19927;-82
2023/11/05 09:55:15;;;;;;;;;;;;;;;;;;5109931;28;20012;-81
2023/11/05 09:57:43;;;;;;;;;;;;;;;;;;5108624;28;19977;-81
2023/11/05 10:00:11;;;;;;;;;;;;;;;;;;5098601;28;20292;-81
2023/11/05 10:02:38;;;;;;;;;;;;;;;;;;5105622;28;20005;-83
2023/11/05 10:05:06;;;;;;;;;;;;;;;;;;5104430;28;19949;-84
2023/11/05 10:07:32;;;;;;;;;;;;;;;;;;5108085;28;19925;-84
2023/11/05 10:10:00;;;;;;;;;;;;;;;;;;5106735;28;20264;-83
2023/11/05 10:12:27;;;;;;;;;;;;;;;;;;5113413;28;19928;-84
2023/11/05 10:14:55;;;;;;;;;;;;;;;;;;5106122;28;19932;-83
2023/11/05 10:17:22;;;;;;;;;;;;;;;;;;5106849;28;19955;-85
2023/11/05 10:19:49;;;;;;;;;;;;;;;;;;5091889;28;19981;-84
2023/11/05 10:22:16;;;;;;;;;;;;;;;;;;5109377;28;20315;-84
2023/11/05 10:24:45;;;;;;;;;;;;;;;;;;5111205;28;20393;-84
2023/11/05 10:27:12;;;;;;;;;;;;;;;;;;5108178;28;19928;-82
2023/11/05 10:29:39;;;;;;;;;;;;;;;;;;5115890;28;19937;-83
2023/11/05 10:32:06;;;;;;;;;;;;;;;;;;5110414;28;19924;-83
2023/11/05 10:34:34;;;;;;;;;;;;;;;;;;5110655;28;19974;-83
2023/11/05 10:37:01;;;;;;;;;;;;;;;;;;5112028;28;19928;-81
2023/11/05 10:39:27;;;;;;;;;;;;;;;;;;5103821;28;19927;-83
2023/11/05 10:41:55;;;;;;;;;;;;;;;;;;5106662;28;19957;-84
2023/11/05 10:44:24;;;;;;;;;;;;;;;;;;5103463;28;19953;-84
2023/11/05 10:46:55;;;;;;;;;;;;;;;;;;5100802;28;19946;-83
2023/11/05 10:49:21;;;;;;;;;;;;;;;;;;5104714;28;19928;-83
2023/11/05 10:51:49;;;;;;;;;;;;;;;;;;5106220;28;19963;-83
2023/11/05 10:54:16;;;;;;;;;;;;;;;;;;5101334;28;20438;-83
2023/11/05 10:56:46;;;;;;;;;;;;;;;;;;5108993;28;20023;-81
2023/11/05 10:59:14;;;;;;;;;;;;;;;;;;5107138;28;20039;-82
2023/11/05 11:01:40;;;;;;;;;;;;;;;;;;5100973;28;20394;-81
2023/11/05 11:04:08;;;;;;;;;;;;;;;;;;5108177;28;19928;-81
2023/11/05 11:06:35;;;;;;;;;;;;;;;;;;5114202;28;19924;-81
2023/11/05 11:09:01;;;;;;;;;;;;;;;;;;5099359;28;20026;-81
2023/11/05 11:11:28;;;;;;;;;;;;;;;;;;5104176;28;19932;-83
2023/11/05 11:13:57;;;;;;;;;;;;;;;;;;5100765;28;20019;-84
2023/11/05 11:16:25;;;;;;;;;;;;;;;;;;5106515;28;19935;-81
2023/11/05 11:18:54;;;;;;;;;;;;;;;;;;5105078;28;19932;-83
2023/11/05 11:21:21;;;;;;;;;;;;;;;;;;5103023;28;19954;-82
2023/11/05 11:23:49;;;;;;;;;;;;;;;;;;5099336;28;19936;-85
2023/11/05 11:26:16;;;;;;;;;;;;;;;;;;5106132;28;20050;-83
2023/11/05 11:28:42;;;;;;;;;;;;;;;;;;5107077;28;19924;-80
2023/11/05 11:31:09;;;;;;;;;;;;;;;;;;5106290;28;20068;-83
2023/11/05 11:33:36;;;;;;;;;;;;;;;;;;5103961;28;19968;-80
2023/11/05 11:36:07;;;;;;;;;;;;;;;;;;5103432;28;19932;-80
2023/11/05 11:38:34;;;;;;;;;;;;;;;;;;5101741;28;19927;-85
2023/11/05 11:41:01;;;;;;;;;;;;;;;;;;5109588;28;19974;-84
2023/11/05 11:43:29;;;;;;;;;;;;;;;;;;5099159;28;20404;-84
2023/11/05 11:45:55;;;;;;;;;;;;;;;;;;5107212;28;19927;-84
2023/11/05 11:48:26;;;;;;;;;;;;;;;;;;5100549;28;19928;-85
2023/11/05 11:50:56;;;;;;;;;;;;;;;;;;5101671;28;19924;-84
2023/11/05 11:53:25;;;;;;;;;;;;;;;;;;5102604;28;20434;-86
2023/11/05 11:55:53;;;;;;;;;;;;;;;;;;5092189;28;20461;-86
2023/11/05 11:58:19;;;;;;;;;;;;;;;;;;5102068;28;19939;-83
2023/11/05 12:00:45;;;;;;;;;;;;;;;;;;5101939;28;19931;-83
2023/11/05 12:03:12;;;;;;;;;;;;;;;;;;5102553;28;19927;-82
2023/11/05 12:05:38;;;;;;;;;;;;;;;;;;5098640;28;19928;-81
2023/11/05 12:08:20;;;;;;;;;;;;;;;;;;5107533;28;19932;-84
2023/11/05 12:10:47;;;;;;;;;;;;;;;;;;5083583;28;19935;-83
2023/11/05 12:13:15;;;;;;;;;;;;;;;;;;5103514;28;19970;-82
2023/11/05 12:15:41;;;;;;;;;;;;;;;;;;5099569;28;20396;-82
2023/11/05 12:18:07;;;;;;;;;;;;;;;;;;5104321;28;20023;-84
2023/11/05 12:20:34;;;;;;;;;;;;;;;;;;5100217;28;19935;-83
2023/11/05 12:23:00;;;;;;;;;;;;;;;;;;5100850;28;19932;-83
2023/11/05 12:25:27;;;;;;;;;;;;;;;;;;5105564;28;20368;-84
2023/11/05 12:27:54;;;;;;;;;;;;;;;;;;5102308;28;19924;-83
2023/11/05 12:30:28;;;;;;;;;;;;;;;;;;5105502;28;19928;-84
2023/11/05 12:32:55;;;;;;;;;;;;;;;;;;5100633;28;20330;-84
2023/11/05 12:35:22;;;;;;;;;;;;;;;;;;5101189;28;19924;-84
2023/11/05 12:37:48;;;;;;;;;;;;;;;;;;5097307;28;20395;-80
2023/11/05 12:40:15;;;;;;;;;;;;;;;;;;5093151;28;19928;-81
2023/11/05 12:42:44;;;;;;;;;;;;;;;;;;5102761;28;20020;-81
2023/11/05 12:45:10;;;;;;;;;;;;;;;;;;5104017;28;19928;-81
2023/11/05 12:47:37;;;;;;;;;;;;;;;;;;5106899;28;20352;-82
2023/11/05 12:50:05;;;;;;;;;;;;;;;;;;5108887;28;19964;-80
2023/11/05 12:52:33;;;;;;;;;;;;;;;;;;5106083;28;20376;-82
2023/11/05 12:54:59;;;;;;;;;;;;;;;;;;5100712;28;20356;-81
2023/11/05 12:57:27;;;;;;;;;;;;;;;;;;5107478;28;20390;-80
2023/11/05 12:59:54;;;;;;;;;;;;;;;;;;5093434;28;19963;-79
2023/11/05 13:02:20;;;;;;;;;;;;;;;;;;5106607;28;19928;-81
2023/11/05 13:04:47;;;;;;;;;;;;;;;;;;5107508;28;19938;-80
2023/11/05 13:07:15;;;;;;;;;;;;;;;;;;5090382;28;20384;-81
2023/11/05 13:09:47;;;;;;;;;;;;;;;;;;5113385;28;20411;-80
2023/11/05 13:12:13;;;;;;;;;;;;;;;;;;5106970;28;20474;-81
2023/11/05 13:14:42;;;;;;;;;;;;;;;;;;5107819;28;19924;-80
2023/11/05 13:17:08;;;;;;;;;;;;;;;;;;5106791;28;20012;-79
2023/11/05 13:19:35;;;;;;;;;;;;;;;;;;5086484;28;19966;-79
2023/11/05 13:22:02;;;;;;;;;;;;;;;;;;5103525;28;19924;-80
2023/11/05 13:24:28;;;;;;;;;;;;;;;;;;5089520;28;19959;-80
2023/11/05 13:26:56;;;;;;;;;;;;;;;;;;5091059;28;20412;-79
2023/11/05 13:29:24;;;;;;;;;;;;;;;;;;5104146;28;19963;-80
2023/11/05 13:31:51;;;;;;;;;;;;;;;;;;5088203;28;19985;-80
2023/11/05 13:34:29;;;;;;;;;;;;;;;;;;5095626;28;19936;-79
2023/11/05 13:36:56;;;;;;;;;;;;;;;;;;5100250;28;20400;-82
2023/11/05 13:39:24;;;;;;;;;;;;;;;;;;5105572;28;20015;-80
2023/11/05 13:41:50;;;;;;;;;;;;;;;;;;5107374;28;20313;-81
2023/11/05 13:44:17;;;;;;;;;;;;;;;;;;5087282;28;19950;-80
2023/11/05 13:46:44;;;;;;;;;;;;;;;;;;5090904;28;19924;-82
2023/11/05 13:49:12;;;;;;;;;;;;;;;;;;5103994;28;19942;-79
2023/11/05 13:51:42;;;;;;;;;;;;;;;;;;5111090;28;20561;-79
2023/11/05 13:54:08;;;;;;;;;;;;;;;;;;5106014;28;19981;-81
2023/11/05 13:56:35;;;;;;;;;;;;;;;;;;5100738;28;19973;-81
2023/11/05 13:59:01;;;;;;;;;;;;;;;;;;5104531;28;19967;-81
2023/11/05 14:01:29;;;;;;;;;;;;;;;;;;5105267;28;20402;-80
2023/11/05 14:03:56;;;;;;;;;;;;;;;;;;5103416;28;19924;-81
2023/11/05 14:06:24;;;;;;;;;;;;;;;;;;5095424;28;20018;-81
2023/11/05 14:08:51;;;;;;;;;;;;;;;;;;5084334;28;19928;-80
2023/11/05 14:11:19;;;;;;;;;;;;;;;;;;5102031;28;19924;-80
2023/11/05 14:13:46;;;;;;;;;;;;;;;;;;5102766;28;19928;-79
2023/11/05 14:16:12;;;;;;;;;;;;;;;;;;5102891;28;20018;-80
2023/11/05 14:18:42;;;;;;;;;;;;;;;;;;5107222;28;19950;-79
2023/11/05 14:21:08;;;;;;;;;;;;;;;;;;5110708;28;19973;-80
2023/11/05 14:23:34;;;;;;;;;;;;;;;;;;5096359;28;19931;-80
2023/11/05 14:26:01;;;;;;;;;;;;;;;;;;5102631;28;19936;-81
2023/11/05 14:28:28;;;;;;;;;;;;;;;;;;5105289;28;19924;-81
2023/11/05 14:30:56;;;;;;;;;;;;;;;;;;5088282;28;19955;-81
2023/11/05 14:33:22;;;;;;;;;;;;;;;;;;5108831;28;20073;-79
2023/11/05 14:35:49;;;;;;;;;;;;;;;;;;5109430;28;19924;-80
2023/11/05 14:38:16;;;;;;;;;;;;;;;;;;5103621;28;20399;-82
2023/11/05 14:40:43;;;;;;;;;;;;;;;;;;5107733;28;20439;-82
2023/11/05 14:43:09;;;;;;;;;;;;;;;;;;5104927;28;19934;-83
2023/11/05 14:45:36;;;;;;;;;;;;;;;;;;5106097;28;20011;-82
2023/11/05 14:48:05;;;;;;;;;;;;;;;;;;5091761;28;19924;-83
2023/11/05 14:50:33;;;;;;;;;;;;;;;;;;5105969;28;20015;-81
2023/11/05 14:53:01;;;;;;;;;;;;;;;;;;5108067;28;19928;-80
2023/11/05 14:55:28;;;;;;;;;;;;;;;;;;5105028;28;19923;-83
2023/11/05 14:57:54;;;;;;;;;;;;;;;;;;5092022;28;20449;-84
2023/11/05 15:00:22;;;;;;;;;;;;;;;;;;5093248;28;20281;-81
2023/11/05 15:02:48;;;;;;;;;;;;;;;;;;5103887;28;19970;-81
2023/11/05 15:05:16;;;;;;;;;;;;;;;;;;5099067;28;19931;-82
2023/11/05 15:07:44;;;;;;;;;;;;;;;;;;5106189;28;20015;-84
2023/11/05 15:10:14;;;;;;;;;;;;;;;;;;5087251;28;19931;-82
2023/11/05 15:12:40;;;;;;;;;;;;;;;;;;5103386;28;19935;-79
2023/11/05 15:15:08;;;;;;;;;;;;;;;;;;5101115;28;19973;-81
2023/11/05 15:17:35;;;;;;;;;;;;;;;;;;5110062;28;19924;-82
2023/11/05 15:20:03;;;;;;;;;;;;;;;;;;5104865;28;19928;-80
2023/11/05 15:22:30;;;;;;;;;;;;;;;;;;5093200;28;19946;-81
2023/11/05 15:24:59;;;;;;;;;;;;;;;;;;5094881;28;19927;-81
2023/11/05 15:27:28;;;;;;;;;;;;;;;;;;5099725;28;20391;-81
2023/11/05 15:29:58;;;;;;;;;;;;;;;;;;5106428;28;20018;-82
2023/11/05 15:32:24;;;;;;;;;;;;;;;;;;5106226;28;19927;-81
2023/11/05 15:34:55;;;;;;;;;;;;;;;;;;5107499;28;19924;-83
2023/11/05 15:37:21;;;;;;;;;;;;;;;;;;5098381;28;20457;-81
2023/11/05 15:39:53;;;;;;;;;;;;;;;;;;5103722;28;19982;-81
2023/11/05 15:42:19;;;;;;;;;;;;;;;;;;5086251;28;20395;-81
2023/11/05 15:44:46;;;;;;;;;;;;;;;;;;5100192;28;20000;-81
2023/11/05 15:47:16;;;;;;;;;;;;;;;;;;5104210;28;19924;-81
2023/11/05 15:49:42;;;;;;;;;;;;;;;;;;5099957;28;20057;-81
2023/11/05 15:52:08;;;;;;;;;;;;;;;;;;5103454;28;19923;-81
2023/11/05 15:54:35;;;;;;;;;;;;;;;;;;5103052;28;19923;-81
2023/11/05 15:57:02;;;;;;;;;;;;;;;;;;5103776;28;20398;-80
2023/11/05 15:59:31;;;;;;;;;;;;;;;;;;5108537;28;20206;-80
2023/11/05 16:01:57;;;;;;;;;;;;;;;;;;5105680;28;20407;-81
2023/11/05 16:04:24;;;;;;;;;;;;;;;;;;5102297;28;19935;-80
2023/11/05 16:06:51;;;;;;;;;;;;;;;;;;5108891;28;20004;-81
2023/11/05 16:09:18;;;;;;;;;;;;;;;;;;5106412;28;20005;-79
2023/11/05 16:11:47;;;;;;;;;;;;;;;;;;5102221;28;20027;-79
2023/11/05 16:14:19;;;;;;;;;;;;;;;;;;5103106;28;19963;-80
2023/11/05 16:16:46;;;;;;;;;;;;;;;;;;5102142;28;19927;-79
2023/11/05 16:19:12;;;;;;;;;;;;;;;;;;5106828;28;19924;-82
2023/11/05 16:21:40;;;;;;;;;;;;;;;;;;5099864;28;19923;-78
2023/11/05 16:24:08;;;;;;;;;;;;;;;;;;5085551;28;19947;-80
2023/11/05 16:26:35;;;;;;;;;;;;;;;;;;5101098;28;19931;-79
2023/11/05 16:29:01;;;;;;;;;;;;;;;;;;5101969;28;19931;-80
2023/11/05 16:31:30;;;;;;;;;;;;;;;;;;5098490;28;19974;-82
2023/11/05 16:33:58;;;;;;;;;;;;;;;;;;5100577;28;20273;-80
2023/11/05 16:36:27;;;;;;;;;;;;;;;;;;5103440;28;19932;-81
2023/11/05 16:38:54;;;;;;;;;;;;;;;;;;5103048;28;19973;-80
2023/11/05 16:41:21;;;;;;;;;;;;;;;;;;5100310;28;20369;-79
2023/11/05 16:43:47;;;;;;;;;;;;;;;;;;5099809;28;19928;-78
2023/11/05 16:46:14;;;;;;;;;;;;;;;;;;5100819;28;20384;-79